sensor_id;sensor_type;location;lat;lon;timestamp;P1;durP1;ratioP1;P2;durP2;ratioP2
27199;SDS011;14714;48.106;11.546;2023-02-04T00:02:05;1.70;;;1.33;;
27199;SDS011;14714;48.106;11.546;2023-02-04T00:04:31;1.50;;;1.38;;
27199;SDS011;14714;48.106;11.546;2023-02-04T00:06:58;2.50;;;1.60;;
27199;SDS011;14714;48.106;11.546;2023-02-04T00:09:25;3.30;;;1.55;;
27199;SDS011;14714;48.106;11.546;2023-02-04T00:11:52;3.70;;;1.50;;
27199;SDS011;14714;48.106;11.546;2023-02-04T00:14:18;2.10;;;1.80;;
27199;SDS011;14714;48.106;11.546;2023-02-04T00:16:45;1.90;;;1.73;;
27199;SDS011;14714;48.106;11.546;2023-02-04T00:19:12;4.53;;;1.63;;
27199;SDS011;14714;48.106;11.546;2023-02-04T00:21:38;3.58;;;1.45;;
27199;SDS011;14714;48.106;11.546;2023-02-04T00:24:05;2.22;;;1.85;;
27199;SDS011;14714;48.106;11.546;2023-02-04T00:26:32;2.85;;;1.70;;
27199;SDS011;14714;48.106;11.546;2023-02-04T00:28:59;1.60;;;1.50;;
27199;SDS011;14714;48.106;11.546;2023-02-04T00:31:25;1.70;;;1.60;;
27199;SDS011;14714;48.106;11.546;2023-02-04T00:33:52;1.92;;;1.40;;
27199;SDS011;14714;48.106;11.546;2023-02-04T00:36:19;2.33;;;1.70;;
27199;SDS011;14714;48.106;11.546;2023-02-04T00:38:46;1.90;;;1.70;;
27199;SDS011;14714;48.106;11.546;2023-02-04T00:41:13;2.13;;;1.67;;
27199;SDS011;14714;48.106;11.546;2023-02-04T00:43:40;2.03;;;1.60;;
27199;SDS011;14714;48.106;11.546;2023-02-04T00:46:06;1.88;;;1.42;;
27199;SDS011;14714;48.106;11.546;2023-02-04T00:48:33;1.48;;;1.38;;
27199;SDS011;14714;48.106;11.546;2023-02-04T00:51:00;1.70;;;1.48;;
27199;SDS011;14714;48.106;11.546;2023-02-04T00:53:27;2.15;;;1.40;;
27199;SDS011;14714;48.106;11.546;2023-02-04T00:55:54;1.40;;;1.30;;
27199;SDS011;14714;48.106;11.546;2023-02-04T00:58:21;1.42;;;1.33;;
27199;SDS011;14714;48.106;11.546;2023-02-04T01:00:48;1.73;;;1.50;;
27199;SDS011;14714;48.106;11.546;2023-02-04T01:03:14;3.20;;;1.40;;
27199;SDS011;14714;48.106;11.546;2023-02-04T01:05:41;1.83;;;1.48;;
27199;SDS011;14714;48.106;11.546;2023-02-04T01:08:08;1.75;;;1.33;;
27199;SDS011;14714;48.106;11.546;2023-02-04T01:10:35;3.47;;;1.38;;
27199;SDS011;14714;48.106;11.546;2023-02-04T01:13:02;1.38;;;1.27;;
27199;SDS011;14714;48.106;11.546;2023-02-04T01:15:28;1.52;;;1.25;;
27199;SDS011;14714;48.106;11.546;2023-02-04T01:17:55;2.75;;;1.40;;
27199;SDS011;14714;48.106;11.546;2023-02-04T01:20:22;1.20;;;1.10;;
27199;SDS011;14714;48.106;11.546;2023-02-04T01:22:49;1.58;;;1.30;;
27199;SDS011;14714;48.106;11.546;2023-02-04T01:25:16;1.55;;;1.38;;
27199;SDS011;14714;48.106;11.546;2023-02-04T01:27:43;1.67;;;1.30;;
27199;SDS011;14714;48.106;11.546;2023-02-04T01:30:11;1.48;;;1.35;;
27199;SDS011;14714;48.106;11.546;2023-02-04T01:32:39;1.50;;;1.40;;
27199;SDS011;14714;48.106;11.546;2023-02-04T01:35:07;2.88;;;1.70;;
27199;SDS011;14714;48.106;11.546;2023-02-04T01:37:33;2.05;;;1.40;;
27199;SDS011;14714;48.106;11.546;2023-02-04T01:40:00;1.42;;;1.30;;
27199;SDS011;14714;48.106;11.546;2023-02-04T01:42:27;1.20;;;1.10;;
27199;SDS011;14714;48.106;11.546;2023-02-04T01:44:54;1.45;;;1.15;;
27199;SDS011;14714;48.106;11.546;2023-02-04T01:47:21;1.88;;;1.15;;
27199;SDS011;14714;48.106;11.546;2023-02-04T01:49:50;1.05;;;0.90;;
27199;SDS011;14714;48.106;11.546;2023-02-04T01:52:19;1.30;;;0.90;;
27199;SDS011;14714;48.106;11.546;2023-02-04T01:54:48;1.83;;;0.90;;
27199;SDS011;14714;48.106;11.546;2023-02-04T01:57:15;1.13;;;0.95;;
27199;SDS011;14714;48.106;11.546;2023-02-04T01:59:43;2.75;;;1.10;;
27199;SDS011;14714;48.106;11.546;2023-02-04T02:05:03;1.88;;;1.10;;
27199;SDS011;14714;48.106;11.546;2023-02-04T02:07:31;2.75;;;1.10;;
27199;SDS011;14714;48.106;11.546;2023-02-04T02:09:58;2.88;;;1.20;;
27199;SDS011;14714;48.106;11.546;2023-02-04T02:12:25;2.42;;;1.40;;
27199;SDS011;14714;48.106;11.546;2023-02-04T02:14:51;4.35;;;1.60;;
27199;SDS011;14714;48.106;11.546;2023-02-04T02:17:18;3.80;;;1.50;;
27199;SDS011;14714;48.106;11.546;2023-02-04T02:19:45;4.57;;;1.70;;
27199;SDS011;14714;48.106;11.546;2023-02-04T02:22:15;10.35;;;1.90;;
27199;SDS011;14714;48.106;11.546;2023-02-04T02:24:45;2.50;;;1.58;;
27199;SDS011;14714;48.106;11.546;2023-02-04T02:27:12;4.63;;;1.85;;
27199;SDS011;14714;48.106;11.546;2023-02-04T02:29:39;6.45;;;1.90;;
27199;SDS011;14714;48.106;11.546;2023-02-04T02:32:08;2.83;;;1.90;;
27199;SDS011;14714;48.106;11.546;2023-02-04T02:34:36;6.13;;;2.10;;
27199;SDS011;14714;48.106;11.546;2023-02-04T02:37:04;5.22;;;2.45;;
27199;SDS011;14714;48.106;11.546;2023-02-04T02:39:34;7.17;;;1.90;;
27199;SDS011;14714;48.106;11.546;2023-02-04T02:42:03;5.53;;;2.13;;
27199;SDS011;14714;48.106;11.546;2023-02-04T02:44:29;4.97;;;2.35;;
27199;SDS011;14714;48.106;11.546;2023-02-04T02:46:58;5.95;;;2.30;;
27199;SDS011;14714;48.106;11.546;2023-02-04T02:49:25;5.68;;;2.20;;
27199;SDS011;14714;48.106;11.546;2023-02-04T02:51:55;4.68;;;2.45;;
27199;SDS011;14714;48.106;11.546;2023-02-04T02:56:53;6.28;;;2.40;;
27199;SDS011;14714;48.106;11.546;2023-02-04T02:59:21;12.55;;;3.40;;
27199;SDS011;14714;48.106;11.546;2023-02-04T03:01:50;11.70;;;2.85;;
27199;SDS011;14714;48.106;11.546;2023-02-04T03:04:20;8.45;;;3.00;;
27199;SDS011;14714;48.106;11.546;2023-02-04T03:06:47;10.90;;;2.90;;
27199;SDS011;14714;48.106;11.546;2023-02-04T03:09:14;11.18;;;3.03;;
27199;SDS011;14714;48.106;11.546;2023-02-04T03:11:41;10.93;;;2.78;;
27199;SDS011;14714;48.106;11.546;2023-02-04T03:14:08;10.90;;;2.78;;
27199;SDS011;14714;48.106;11.546;2023-02-04T03:16:35;11.52;;;2.70;;
27199;SDS011;14714;48.106;11.546;2023-02-04T03:19:03;12.98;;;3.17;;
27199;SDS011;14714;48.106;11.546;2023-02-04T03:21:31;11.00;;;3.22;;
27199;SDS011;14714;48.106;11.546;2023-02-04T03:23:58;15.77;;;3.10;;
27199;SDS011;14714;48.106;11.546;2023-02-04T03:26:25;11.80;;;3.10;;
27199;SDS011;14714;48.106;11.546;2023-02-04T03:28:53;6.63;;;2.67;;
27199;SDS011;14714;48.106;11.546;2023-02-04T03:31:20;10.18;;;3.00;;
27199;SDS011;14714;48.106;11.546;2023-02-04T03:33:47;10.27;;;3.08;;
27199;SDS011;14714;48.106;11.546;2023-02-04T03:36:14;12.20;;;3.40;;
27199;SDS011;14714;48.106;11.546;2023-02-04T03:38:40;12.57;;;3.40;;
27199;SDS011;14714;48.106;11.546;2023-02-04T03:41:07;9.05;;;3.00;;
27199;SDS011;14714;48.106;11.546;2023-02-04T03:43:34;16.73;;;3.90;;
27199;SDS011;14714;48.106;11.546;2023-02-04T03:46:00;9.13;;;3.05;;
27199;SDS011;14714;48.106;11.546;2023-02-04T03:48:27;10.52;;;2.78;;
27199;SDS011;14714;48.106;11.546;2023-02-04T03:50:54;11.13;;;3.25;;
27199;SDS011;14714;48.106;11.546;2023-02-04T03:53:21;14.65;;;2.90;;
27199;SDS011;14714;48.106;11.546;2023-02-04T03:55:47;9.10;;;2.67;;
27199;SDS011;14714;48.106;11.546;2023-02-04T03:58:14;12.85;;;3.20;;
27199;SDS011;14714;48.106;11.546;2023-02-04T04:00:41;18.20;;;3.25;;
27199;SDS011;14714;48.106;11.546;2023-02-04T04:03:08;17.35;;;3.10;;
27199;SDS011;14714;48.106;11.546;2023-02-04T04:05:34;16.42;;;2.85;;
27199;SDS011;14714;48.106;11.546;2023-02-04T04:08:01;13.00;;;3.13;;
27199;SDS011;14714;48.106;11.546;2023-02-04T04:10:28;11.50;;;3.28;;
27199;SDS011;14714;48.106;11.546;2023-02-04T04:12:55;17.70;;;2.88;;
27199;SDS011;14714;48.106;11.546;2023-02-04T04:15:22;11.30;;;3.28;;
27199;SDS011;14714;48.106;11.546;2023-02-04T04:17:49;14.27;;;2.80;;
27199;SDS011;14714;48.106;11.546;2023-02-04T04:20:16;13.55;;;3.20;;
27199;SDS011;14714;48.106;11.546;2023-02-04T04:22:43;14.48;;;3.47;;
27199;SDS011;14714;48.106;11.546;2023-02-04T04:25:10;9.38;;;2.85;;
27199;SDS011;14714;48.106;11.546;2023-02-04T04:27:37;13.35;;;3.35;;
27199;SDS011;14714;48.106;11.546;2023-02-04T04:30:04;10.98;;;2.80;;
27199;SDS011;14714;48.106;11.546;2023-02-04T04:32:31;12.80;;;3.20;;
27199;SDS011;14714;48.106;11.546;2023-02-04T04:34:58;9.88;;;2.70;;
27199;SDS011;14714;48.106;11.546;2023-02-04T04:37:25;13.98;;;2.83;;
27199;SDS011;14714;48.106;11.546;2023-02-04T04:39:52;12.13;;;2.90;;
27199;SDS011;14714;48.106;11.546;2023-02-04T04:42:18;9.07;;;2.70;;
27199;SDS011;14714;48.106;11.546;2023-02-04T04:44:45;9.52;;;2.42;;
27199;SDS011;14714;48.106;11.546;2023-02-04T04:47:12;14.57;;;3.17;;
27199;SDS011;14714;48.106;11.546;2023-02-04T04:49:39;11.27;;;2.97;;
27199;SDS011;14714;48.106;11.546;2023-02-04T04:52:05;12.50;;;3.30;;
27199;SDS011;14714;48.106;11.546;2023-02-04T04:54:32;8.10;;;2.42;;
27199;SDS011;14714;48.106;11.546;2023-02-04T04:56:59;9.40;;;2.65;;
27199;SDS011;14714;48.106;11.546;2023-02-04T04:59:26;10.05;;;2.55;;
27199;SDS011;14714;48.106;11.546;2023-02-04T05:01:53;9.95;;;3.00;;
27199;SDS011;14714;48.106;11.546;2023-02-04T05:04:19;16.95;;;3.63;;
27199;SDS011;14714;48.106;11.546;2023-02-04T05:06:46;13.20;;;2.92;;
27199;SDS011;14714;48.106;11.546;2023-02-04T05:09:13;10.70;;;3.35;;
27199;SDS011;14714;48.106;11.546;2023-02-04T05:11:41;11.60;;;3.20;;
27199;SDS011;14714;48.106;11.546;2023-02-04T05:14:09;8.40;;;2.70;;
27199;SDS011;14714;48.106;11.546;2023-02-04T05:16:35;13.10;;;3.40;;
27199;SDS011;14714;48.106;11.546;2023-02-04T05:19:02;9.88;;;2.50;;
27199;SDS011;14714;48.106;11.546;2023-02-04T05:21:29;12.05;;;2.90;;
27199;SDS011;14714;48.106;11.546;2023-02-04T05:23:56;9.95;;;2.80;;
27199;SDS011;14714;48.106;11.546;2023-02-04T05:26:22;11.85;;;2.78;;
27199;SDS011;14714;48.106;11.546;2023-02-04T05:28:56;16.67;;;3.17;;
27199;SDS011;14714;48.106;11.546;2023-02-04T05:31:25;15.02;;;2.70;;
27199;SDS011;14714;48.106;11.546;2023-02-04T05:33:52;11.55;;;3.10;;
27199;SDS011;14714;48.106;11.546;2023-02-04T05:36:19;16.20;;;2.85;;
27199;SDS011;14714;48.106;11.546;2023-02-04T05:38:46;8.35;;;2.47;;
27199;SDS011;14714;48.106;11.546;2023-02-04T05:41:13;10.68;;;2.55;;
27199;SDS011;14714;48.106;11.546;2023-02-04T05:43:40;12.50;;;2.78;;
27199;SDS011;14714;48.106;11.546;2023-02-04T05:46:08;16.88;;;3.42;;
27199;SDS011;14714;48.106;11.546;2023-02-04T05:48:35;7.03;;;2.58;;
27199;SDS011;14714;48.106;11.546;2023-02-04T05:51:02;16.80;;;3.40;;
27199;SDS011;14714;48.106;11.546;2023-02-04T05:53:28;12.65;;;3.33;;
27199;SDS011;14714;48.106;11.546;2023-02-04T05:55:55;11.50;;;2.85;;
27199;SDS011;14714;48.106;11.546;2023-02-04T05:58:22;18.05;;;3.08;;
27199;SDS011;14714;48.106;11.546;2023-02-04T06:00:49;10.57;;;3.20;;
27199;SDS011;14714;48.106;11.546;2023-02-04T06:03:16;10.73;;;3.38;;
27199;SDS011;14714;48.106;11.546;2023-02-04T06:05:44;7.63;;;2.95;;
27199;SDS011;14714;48.106;11.546;2023-02-04T06:08:11;11.10;;;3.10;;
27199;SDS011;14714;48.106;11.546;2023-02-04T06:10:40;11.50;;;3.13;;
27199;SDS011;14714;48.106;11.546;2023-02-04T06:13:07;13.65;;;3.53;;
27199;SDS011;14714;48.106;11.546;2023-02-04T06:15:34;13.18;;;3.55;;
27199;SDS011;14714;48.106;11.546;2023-02-04T06:18:01;12.50;;;3.58;;
27199;SDS011;14714;48.106;11.546;2023-02-04T06:20:28;16.58;;;3.88;;
27199;SDS011;14714;48.106;11.546;2023-02-04T06:22:56;16.70;;;3.20;;
27199;SDS011;14714;48.106;11.546;2023-02-04T06:25:23;9.35;;;3.05;;
27199;SDS011;14714;48.106;11.546;2023-02-04T06:27:50;13.00;;;3.97;;
27199;SDS011;14714;48.106;11.546;2023-02-04T06:30:17;14.77;;;3.95;;
27199;SDS011;14714;48.106;11.546;2023-02-04T06:32:44;12.55;;;3.65;;
27199;SDS011;14714;48.106;11.546;2023-02-04T06:35:10;9.80;;;3.28;;
27199;SDS011;14714;48.106;11.546;2023-02-04T06:37:38;11.73;;;3.60;;
27199;SDS011;14714;48.106;11.546;2023-02-04T06:40:05;12.23;;;3.90;;
27199;SDS011;14714;48.106;11.546;2023-02-04T06:42:33;15.63;;;3.67;;
27199;SDS011;14714;48.106;11.546;2023-02-04T06:45:00;15.02;;;4.00;;
27199;SDS011;14714;48.106;11.546;2023-02-04T06:47:27;9.48;;;3.20;;
27199;SDS011;14714;48.106;11.546;2023-02-04T06:49:54;13.50;;;3.65;;
27199;SDS011;14714;48.106;11.546;2023-02-04T06:52:20;11.88;;;3.30;;
27199;SDS011;14714;48.106;11.546;2023-02-04T06:54:47;14.43;;;3.55;;
27199;SDS011;14714;48.106;11.546;2023-02-04T06:57:14;10.73;;;3.55;;
27199;SDS011;14714;48.106;11.546;2023-02-04T06:59:40;11.93;;;3.30;;
27199;SDS011;14714;48.106;11.546;2023-02-04T07:02:09;15.85;;;3.67;;
27199;SDS011;14714;48.106;11.546;2023-02-04T07:04:37;14.57;;;3.20;;
27199;SDS011;14714;48.106;11.546;2023-02-04T07:07:04;12.77;;;3.45;;
27199;SDS011;14714;48.106;11.546;2023-02-04T07:09:30;14.75;;;3.30;;
27199;SDS011;14714;48.106;11.546;2023-02-04T07:11:57;11.75;;;3.13;;
27199;SDS011;14714;48.106;11.546;2023-02-04T07:14:24;12.70;;;3.33;;
27199;SDS011;14714;48.106;11.546;2023-02-04T07:16:51;8.88;;;3.13;;
27199;SDS011;14714;48.106;11.546;2023-02-04T07:19:18;11.95;;;3.35;;
27199;SDS011;14714;48.106;11.546;2023-02-04T07:21:46;13.50;;;3.70;;
27199;SDS011;14714;48.106;11.546;2023-02-04T07:24:13;9.90;;;3.00;;
27199;SDS011;14714;48.106;11.546;2023-02-04T07:26:39;11.82;;;3.13;;
27199;SDS011;14714;48.106;11.546;2023-02-04T07:29:06;12.18;;;3.40;;
27199;SDS011;14714;48.106;11.546;2023-02-04T07:31:39;14.02;;;3.28;;
27199;SDS011;14714;48.106;11.546;2023-02-04T07:34:06;14.50;;;3.47;;
27199;SDS011;14714;48.106;11.546;2023-02-04T07:36:33;9.63;;;3.13;;
27199;SDS011;14714;48.106;11.546;2023-02-04T07:39:00;13.32;;;3.38;;
27199;SDS011;14714;48.106;11.546;2023-02-04T07:41:27;9.73;;;2.80;;
27199;SDS011;14714;48.106;11.546;2023-02-04T07:43:54;13.27;;;3.42;;
27199;SDS011;14714;48.106;11.546;2023-02-04T07:46:20;11.98;;;2.58;;
27199;SDS011;14714;48.106;11.546;2023-02-04T07:48:47;12.20;;;3.10;;
27199;SDS011;14714;48.106;11.546;2023-02-04T07:51:14;9.68;;;2.70;;
27199;SDS011;14714;48.106;11.546;2023-02-04T07:53:41;12.63;;;2.85;;
27199;SDS011;14714;48.106;11.546;2023-02-04T07:56:08;10.40;;;2.72;;
27199;SDS011;14714;48.106;11.546;2023-02-04T07:58:34;17.67;;;2.95;;
27199;SDS011;14714;48.106;11.546;2023-02-04T08:01:01;10.93;;;3.13;;
27199;SDS011;14714;48.106;11.546;2023-02-04T08:03:28;8.32;;;2.25;;
27199;SDS011;14714;48.106;11.546;2023-02-04T08:05:55;10.02;;;2.42;;
27199;SDS011;14714;48.106;11.546;2023-02-04T08:08:21;8.57;;;2.40;;
27199;SDS011;14714;48.106;11.546;2023-02-04T08:10:48;13.93;;;2.70;;
27199;SDS011;14714;48.106;11.546;2023-02-04T08:13:15;13.07;;;3.10;;
27199;SDS011;14714;48.106;11.546;2023-02-04T08:15:42;14.27;;;3.25;;
27199;SDS011;14714;48.106;11.546;2023-02-04T08:18:08;11.50;;;3.03;;
27199;SDS011;14714;48.106;11.546;2023-02-04T08:20:35;9.98;;;2.80;;
27199;SDS011;14714;48.106;11.546;2023-02-04T08:23:02;7.75;;;2.55;;
27199;SDS011;14714;48.106;11.546;2023-02-04T08:25:29;11.27;;;2.50;;
27199;SDS011;14714;48.106;11.546;2023-02-04T08:27:55;12.80;;;3.33;;
27199;SDS011;14714;48.106;11.546;2023-02-04T08:30:22;10.70;;;3.28;;
27199;SDS011;14714;48.106;11.546;2023-02-04T08:32:49;12.02;;;2.72;;
27199;SDS011;14714;48.106;11.546;2023-02-04T08:35:16;12.23;;;2.97;;
27199;SDS011;14714;48.106;11.546;2023-02-04T08:37:42;10.13;;;2.53;;
27199;SDS011;14714;48.106;11.546;2023-02-04T08:40:10;14.32;;;2.95;;
27199;SDS011;14714;48.106;11.546;2023-02-04T08:42:37;13.73;;;2.90;;
27199;SDS011;14714;48.106;11.546;2023-02-04T08:45:03;8.23;;;2.70;;
27199;SDS011;14714;48.106;11.546;2023-02-04T08:47:30;10.73;;;2.70;;
27199;SDS011;14714;48.106;11.546;2023-02-04T08:49:57;12.75;;;2.95;;
27199;SDS011;14714;48.106;11.546;2023-02-04T08:52:24;15.15;;;2.80;;
27199;SDS011;14714;48.106;11.546;2023-02-04T08:54:50;12.73;;;2.90;;
27199;SDS011;14714;48.106;11.546;2023-02-04T08:57:17;12.25;;;2.80;;
27199;SDS011;14714;48.106;11.546;2023-02-04T08:59:44;11.32;;;3.10;;
27199;SDS011;14714;48.106;11.546;2023-02-04T09:02:11;12.25;;;3.05;;
27199;SDS011;14714;48.106;11.546;2023-02-04T09:04:37;8.75;;;2.40;;
27199;SDS011;14714;48.106;11.546;2023-02-04T09:07:04;12.10;;;2.95;;
27199;SDS011;14714;48.106;11.546;2023-02-04T09:09:31;10.88;;;3.08;;
27199;SDS011;14714;48.106;11.546;2023-02-04T09:11:58;10.32;;;2.83;;
27199;SDS011;14714;48.106;11.546;2023-02-04T09:14:26;12.43;;;3.00;;
27199;SDS011;14714;48.106;11.546;2023-02-04T09:16:53;12.20;;;3.13;;
27199;SDS011;14714;48.106;11.546;2023-02-04T09:19:20;8.35;;;2.80;;
27199;SDS011;14714;48.106;11.546;2023-02-04T09:24:18;10.35;;;2.95;;
27199;SDS011;14714;48.106;11.546;2023-02-04T09:26:45;10.40;;;2.72;;
27199;SDS011;14714;48.106;11.546;2023-02-04T09:29:11;12.43;;;3.08;;
27199;SDS011;14714;48.106;11.546;2023-02-04T09:31:38;9.35;;;2.58;;
27199;SDS011;14714;48.106;11.546;2023-02-04T09:34:06;10.95;;;2.42;;
27199;SDS011;14714;48.106;11.546;2023-02-04T09:36:33;9.07;;;2.53;;
27199;SDS011;14714;48.106;11.546;2023-02-04T09:39:03;10.68;;;2.67;;
27199;SDS011;14714;48.106;11.546;2023-02-04T09:41:34;13.70;;;2.63;;
27199;SDS011;14714;48.106;11.546;2023-02-04T09:44:07;14.05;;;2.95;;
27199;SDS011;14714;48.106;11.546;2023-02-04T09:46:39;10.85;;;2.50;;
27199;SDS011;14714;48.106;11.546;2023-02-04T09:49:11;11.52;;;3.20;;
27199;SDS011;14714;48.106;11.546;2023-02-04T09:51:37;8.57;;;2.42;;
27199;SDS011;14714;48.106;11.546;2023-02-04T09:54:12;13.18;;;2.60;;
27199;SDS011;14714;48.106;11.546;2023-02-04T09:56:43;7.28;;;2.78;;
27199;SDS011;14714;48.106;11.546;2023-02-04T09:59:11;8.23;;;2.50;;
27199;SDS011;14714;48.106;11.546;2023-02-04T10:01:39;11.30;;;2.45;;
27199;SDS011;14714;48.106;11.546;2023-02-04T10:04:07;10.45;;;2.65;;
27199;SDS011;14714;48.106;11.546;2023-02-04T10:06:38;9.88;;;2.72;;
27199;SDS011;14714;48.106;11.546;2023-02-04T10:09:10;7.97;;;2.90;;
27199;SDS011;14714;48.106;11.546;2023-02-04T10:11:39;10.27;;;3.00;;
27199;SDS011;14714;48.106;11.546;2023-02-04T10:14:14;10.18;;;2.58;;
27199;SDS011;14714;48.106;11.546;2023-02-04T10:16:45;12.57;;;2.83;;
27199;SDS011;14714;48.106;11.546;2023-02-04T10:19:20;12.40;;;2.92;;
27199;SDS011;14714;48.106;11.546;2023-02-04T10:21:47;15.13;;;2.85;;
27199;SDS011;14714;48.106;11.546;2023-02-04T10:24:15;12.65;;;2.80;;
27199;SDS011;14714;48.106;11.546;2023-02-04T10:26:45;14.88;;;2.97;;
27199;SDS011;14714;48.106;11.546;2023-02-04T10:29:15;13.70;;;2.75;;
27199;SDS011;14714;48.106;11.546;2023-02-04T10:31:44;9.45;;;2.38;;
27199;SDS011;14714;48.106;11.546;2023-02-04T10:34:14;6.85;;;2.58;;
27199;SDS011;14714;48.106;11.546;2023-02-04T10:36:45;13.48;;;2.70;;
27199;SDS011;14714;48.106;11.546;2023-02-04T10:39:20;9.00;;;3.15;;
27199;SDS011;14714;48.106;11.546;2023-02-04T10:41:49;9.20;;;2.53;;
27199;SDS011;14714;48.106;11.546;2023-02-04T10:44:28;10.85;;;2.72;;
27199;SDS011;14714;48.106;11.546;2023-02-04T10:47:04;10.20;;;2.40;;
27199;SDS011;14714;48.106;11.546;2023-02-04T10:49:33;7.97;;;2.17;;
27199;SDS011;14714;48.106;11.546;2023-02-04T10:52:01;7.85;;;2.10;;
27199;SDS011;14714;48.106;11.546;2023-02-04T10:54:38;8.00;;;2.10;;
27199;SDS011;14714;48.106;11.546;2023-02-04T10:59:57;6.05;;;2.00;;
27199;SDS011;14714;48.106;11.546;2023-02-04T11:05:21;7.75;;;1.85;;
27199;SDS011;14714;48.106;11.546;2023-02-04T11:07:51;7.80;;;1.88;;
27199;SDS011;14714;48.106;11.546;2023-02-04T11:10:19;6.50;;;1.85;;
27199;SDS011;14714;48.106;11.546;2023-02-04T11:18:11;6.75;;;2.08;;
27199;SDS011;14714;48.106;11.546;2023-02-04T11:20:45;6.72;;;1.88;;
27199;SDS011;14714;48.106;11.546;2023-02-04T11:26:14;4.03;;;1.70;;
27199;SDS011;14714;48.106;11.546;2023-02-04T11:28:54;4.77;;;1.60;;
27199;SDS011;14714;48.106;11.546;2023-02-04T11:31:55;6.85;;;1.65;;
27199;SDS011;14714;48.106;11.546;2023-02-04T11:37:11;3.72;;;1.30;;
27199;SDS011;14714;48.106;11.546;2023-02-04T11:39:42;2.28;;;1.30;;
27199;SDS011;14714;48.106;11.546;2023-02-04T11:42:18;3.97;;;1.50;;
27199;SDS011;14714;48.106;11.546;2023-02-04T11:44:53;5.50;;;2.15;;
27199;SDS011;14714;48.106;11.546;2023-02-04T11:47:24;6.05;;;2.53;;
27199;SDS011;14714;48.106;11.546;2023-02-04T11:49:54;4.35;;;1.40;;
27199;SDS011;14714;48.106;11.546;2023-02-04T11:52:25;4.07;;;1.95;;
27199;SDS011;14714;48.106;11.546;2023-02-04T11:54:52;4.47;;;1.40;;
27199;SDS011;14714;48.106;11.546;2023-02-04T11:57:20;4.05;;;1.60;;
27199;SDS011;14714;48.106;11.546;2023-02-04T11:59:47;4.13;;;1.50;;
27199;SDS011;14714;48.106;11.546;2023-02-04T12:02:19;2.53;;;1.10;;
27199;SDS011;14714;48.106;11.546;2023-02-04T12:04:54;8.70;;;1.83;;
27199;SDS011;14714;48.106;11.546;2023-02-04T12:07:24;5.47;;;1.40;;
27199;SDS011;14714;48.106;11.546;2023-02-04T12:09:52;2.50;;;1.03;;
27199;SDS011;14714;48.106;11.546;2023-02-04T12:12:23;4.30;;;1.10;;
27199;SDS011;14714;48.106;11.546;2023-02-04T12:14:56;3.25;;;1.30;;
27199;SDS011;14714;48.106;11.546;2023-02-04T12:17:26;3.28;;;1.30;;
27199;SDS011;14714;48.106;11.546;2023-02-04T12:19:53;1.90;;;1.20;;
27199;SDS011;14714;48.106;11.546;2023-02-04T12:22:19;2.63;;;1.23;;
27199;SDS011;14714;48.106;11.546;2023-02-04T12:24:47;1.90;;;1.40;;
27199;SDS011;14714;48.106;11.546;2023-02-04T12:27:13;3.47;;;1.40;;
27199;SDS011;14714;48.106;11.546;2023-02-04T12:29:40;3.33;;;1.45;;
27199;SDS011;14714;48.106;11.546;2023-02-04T12:32:07;3.53;;;1.75;;
27199;SDS011;14714;48.106;11.546;2023-02-04T12:34:34;5.30;;;1.50;;
27199;SDS011;14714;48.106;11.546;2023-02-04T12:37:00;3.80;;;1.30;;
27199;SDS011;14714;48.106;11.546;2023-02-04T12:39:27;2.35;;;1.20;;
27199;SDS011;14714;48.106;11.546;2023-02-04T12:41:54;3.25;;;1.42;;
27199;SDS011;14714;48.106;11.546;2023-02-04T12:44:20;3.55;;;1.70;;
27199;SDS011;14714;48.106;11.546;2023-02-04T12:46:47;3.17;;;1.30;;
27199;SDS011;14714;48.106;11.546;2023-02-04T12:49:14;1.98;;;1.40;;
27199;SDS011;14714;48.106;11.546;2023-02-04T12:51:41;3.63;;;1.45;;
27199;SDS011;14714;48.106;11.546;2023-02-04T12:54:07;2.67;;;1.50;;
27199;SDS011;14714;48.106;11.546;2023-02-04T12:56:34;2.35;;;1.50;;
27199;SDS011;14714;48.106;11.546;2023-02-04T12:59:01;2.75;;;1.52;;
27199;SDS011;14714;48.106;11.546;2023-02-04T13:01:27;8.23;;;1.70;;
27199;SDS011;14714;48.106;11.546;2023-02-04T13:03:54;5.50;;;1.70;;
27199;SDS011;14714;48.106;11.546;2023-02-04T13:06:21;3.28;;;1.85;;
27199;SDS011;14714;48.106;11.546;2023-02-04T13:08:48;2.55;;;1.52;;
27199;SDS011;14714;48.106;11.546;2023-02-04T13:11:15;2.92;;;1.58;;
27199;SDS011;14714;48.106;11.546;2023-02-04T13:13:41;5.40;;;1.98;;
27199;SDS011;14714;48.106;11.546;2023-02-04T13:16:08;2.75;;;1.70;;
27199;SDS011;14714;48.106;11.546;2023-02-04T13:18:35;3.63;;;1.80;;
27199;SDS011;14714;48.106;11.546;2023-02-04T13:21:02;2.80;;;1.50;;
27199;SDS011;14714;48.106;11.546;2023-02-04T13:23:28;3.08;;;1.80;;
27199;SDS011;14714;48.106;11.546;2023-02-04T13:25:55;4.05;;;1.35;;
27199;SDS011;14714;48.106;11.546;2023-02-04T13:28:22;7.30;;;1.50;;
27199;SDS011;14714;48.106;11.546;2023-02-04T13:30:48;3.05;;;1.55;;
27199;SDS011;14714;48.106;11.546;2023-02-04T13:33:15;4.13;;;1.75;;
27199;SDS011;14714;48.106;11.546;2023-02-04T13:35:42;4.70;;;1.77;;
27199;SDS011;14714;48.106;11.546;2023-02-04T13:38:10;6.68;;;2.30;;
27199;SDS011;14714;48.106;11.546;2023-02-04T13:40:37;3.25;;;1.67;;
27199;SDS011;14714;48.106;11.546;2023-02-04T13:43:04;3.25;;;1.88;;
27199;SDS011;14714;48.106;11.546;2023-02-04T13:45:31;3.22;;;1.70;;
27199;SDS011;14714;48.106;11.546;2023-02-04T13:47:58;5.05;;;1.70;;
27199;SDS011;14714;48.106;11.546;2023-02-04T13:50:25;4.47;;;1.77;;
27199;SDS011;14714;48.106;11.546;2023-02-04T13:52:51;2.72;;;1.58;;
27199;SDS011;14714;48.106;11.546;2023-02-04T13:55:20;4.22;;;1.55;;
27199;SDS011;14714;48.106;11.546;2023-02-04T13:57:47;2.25;;;1.73;;
27199;SDS011;14714;48.106;11.546;2023-02-04T14:00:14;3.50;;;1.75;;
27199;SDS011;14714;48.106;11.546;2023-02-04T14:02:41;4.70;;;1.70;;
27199;SDS011;14714;48.106;11.546;2023-02-04T14:05:08;3.50;;;1.50;;
27199;SDS011;14714;48.106;11.546;2023-02-04T14:07:34;2.58;;;1.50;;
27199;SDS011;14714;48.106;11.546;2023-02-04T14:10:01;1.77;;;1.60;;
27199;SDS011;14714;48.106;11.546;2023-02-04T14:12:28;2.38;;;1.63;;
27199;SDS011;14714;48.106;11.546;2023-02-04T14:14:55;5.00;;;1.58;;
27199;SDS011;14714;48.106;11.546;2023-02-04T14:17:22;4.53;;;1.90;;
27199;SDS011;14714;48.106;11.546;2023-02-04T14:19:48;3.58;;;1.75;;
27199;SDS011;14714;48.106;11.546;2023-02-04T14:22:15;3.83;;;2.05;;
27199;SDS011;14714;48.106;11.546;2023-02-04T14:24:42;3.42;;;1.88;;
27199;SDS011;14714;48.106;11.546;2023-02-04T14:27:09;3.60;;;1.70;;
27199;SDS011;14714;48.106;11.546;2023-02-04T14:29:36;5.45;;;1.90;;
27199;SDS011;14714;48.106;11.546;2023-02-04T14:32:03;4.38;;;1.60;;
27199;SDS011;14714;48.106;11.546;2023-02-04T14:34:30;2.00;;;1.55;;
27199;SDS011;14714;48.106;11.546;2023-02-04T14:36:57;1.88;;;1.45;;
27199;SDS011;14714;48.106;11.546;2023-02-04T14:39:23;2.50;;;1.50;;
27199;SDS011;14714;48.106;11.546;2023-02-04T14:41:50;2.85;;;1.50;;
27199;SDS011;14714;48.106;11.546;2023-02-04T14:44:17;2.85;;;1.40;;
27199;SDS011;14714;48.106;11.546;2023-02-04T14:46:46;2.30;;;1.70;;
27199;SDS011;14714;48.106;11.546;2023-02-04T14:49:17;1.75;;;1.45;;
27199;SDS011;14714;48.106;11.546;2023-02-04T14:51:43;1.20;;;1.10;;
27199;SDS011;14714;48.106;11.546;2023-02-04T14:54:10;1.63;;;1.13;;
27199;SDS011;14714;48.106;11.546;2023-02-04T14:56:37;1.98;;;1.58;;